FIN9LL EKBI-EFHK
Flight info
| Callsign | FIN9LL |
|---|---|
| Flight time | 1h 24m |
| Altitude | 35000 |
| Route | INTET DCT RADIS DCT VADIN DCT LURAR DCT RIKUM DCT RIRIP Y364 LAKUT |
| Aircraft | A320/M-SDE3FGHIRWY/LB1 |
Departure
| Time | 2026-05-05 16:20 |
|---|---|
| Airport | Billund Airport (EKBI) |
Arrival
| Time | 2026-05-05 17:45 |
|---|---|
| Airport | Helsinki Vantaa Airport (EFHK) |
| Time | Latitude | Longitude | Altitude | Speed | Heading |
|---|---|---|---|---|---|
| 2026-05-05 16:01 | 55.74542 | 9.15081 | 241 ft | 0 kts | 357° |
| 2026-05-05 16:09 | 55.74536 | 9.15081 | 241 ft | 4 kts | 357° |
| 2026-05-05 16:10 | 55.74509 | 9.15083 | 241 ft | 4 kts | 357° |
| 2026-05-05 16:10 | 55.74485 | 9.15085 | 241 ft | 4 kts | 359° |
| 2026-05-05 16:10 | 55.74464 | 9.15074 | 241 ft | 4 kts | 63° |
| 2026-05-05 16:10 | 55.74453 | 9.15031 | 241 ft | 4 kts | 75° |
| 2026-05-05 16:11 | 55.74447 | 9.14992 | 241 ft | 1 kts | 63° |
| 2026-05-05 16:11 | 55.74447 | 9.14991 | 241 ft | 0 kts | 63° |
| 2026-05-05 16:14 | 55.74440 | 9.14999 | 241 ft | 1 kts | 158° |
| 2026-05-05 16:14 | 55.74353 | 9.14984 | 241 ft | 12 kts | 178° |
| 2026-05-05 16:15 | 55.74211 | 9.15008 | 241 ft | 9 kts | 147° |
| 2026-05-05 16:15 | 55.74200 | 9.15169 | 241 ft | 6 kts | 87° |
| 2026-05-05 16:16 | 55.74207 | 9.15415 | 241 ft | 10 kts | 87° |
| 2026-05-05 16:16 | 55.74222 | 9.15854 | 241 ft | 24 kts | 86° |
| 2026-05-05 16:17 | 55.74240 | 9.16461 | 241 ft | 26 kts | 86° |
| 2026-05-05 16:17 | 55.74250 | 9.16783 | 241 ft | 27 kts | 87° |
| 2026-05-05 16:18 | 55.74271 | 9.17480 | 241 ft | 29 kts | 87° |
| 2026-05-05 16:18 | 55.74282 | 9.17808 | 241 ft | 26 kts | 86° |
| 2026-05-05 16:18 | 55.74243 | 9.18122 | 241 ft | 9 kts | 154° |
| 2026-05-05 16:19 | 55.74189 | 9.18142 | 241 ft | 7 kts | 181° |
| 2026-05-05 16:19 | 55.74129 | 9.18111 | 242 ft | 7 kts | 237° |
| 2026-05-05 16:19 | 55.74096 | 9.17119 | 245 ft | 98 kts | 265° |
| 2026-05-05 16:20 | 55.74031 | 9.14282 | 631 ft | 148 kts | 270° |
| 2026-05-05 16:20 | 55.74767 | 9.11223 | 1746 ft | 157 kts | 338° |
| 2026-05-05 16:21 | 55.77195 | 9.10433 | 2282 ft | 203 kts | 349° |
| 2026-05-05 16:22 | 55.82017 | 9.08911 | 4016 ft | 253 kts | 348° |
| 2026-05-05 16:22 | 55.85557 | 9.07754 | 5711 ft | 264 kts | 347° |
| 2026-05-05 16:23 | 55.89228 | 9.06543 | 7402 ft | 272 kts | 347° |
| 2026-05-05 16:23 | 55.91099 | 9.05923 | 8240 ft | 275 kts | 347° |
| 2026-05-05 16:23 | 55.94978 | 9.06587 | 9874 ft | 293 kts | 19° |
| 2026-05-05 16:24 | 55.96774 | 9.08408 | 10545 ft | 305 kts | 32° |
| 2026-05-05 16:24 | 55.98575 | 9.10668 | 10783 ft | 328 kts | 32° |
| 2026-05-05 16:24 | 56.02499 | 9.15601 | 11691 ft | 354 kts | 32° |
| 2026-05-05 16:25 | 56.04530 | 9.18164 | 12356 ft | 360 kts | 32° |
| 2026-05-05 16:25 | 56.08683 | 9.23420 | 13711 ft | 371 kts | 31° |
| 2026-05-05 16:25 | 56.10802 | 9.26102 | 14306 ft | 376 kts | 31° |
| 2026-05-05 16:26 | 56.15120 | 9.31569 | 15519 ft | 384 kts | 31° |
| 2026-05-05 16:26 | 56.19523 | 9.37163 | 16729 ft | 391 kts | 31° |
| 2026-05-05 16:27 | 56.21757 | 9.40009 | 17338 ft | 395 kts | 32° |
| 2026-05-05 16:27 | 56.23846 | 9.43293 | 17924 ft | 404 kts | 42° |
| 2026-05-05 16:27 | 56.25818 | 9.46922 | 18487 ft | 407 kts | 42° |
| 2026-05-05 16:27 | 56.27807 | 9.50581 | 19010 ft | 411 kts | 42° |
| 2026-05-05 16:28 | 56.29813 | 9.54268 | 19526 ft | 414 kts | 42° |
| 2026-05-05 16:28 | 56.31838 | 9.57991 | 20065 ft | 418 kts | 42° |
| 2026-05-05 16:28 | 56.33879 | 9.61745 | 20597 ft | 421 kts | 42° |
| 2026-05-05 16:28 | 56.35935 | 9.65537 | 21118 ft | 424 kts | 42° |
| 2026-05-05 16:29 | 56.37979 | 9.69319 | 21639 ft | 428 kts | 42° |
| 2026-05-05 16:29 | 56.40069 | 9.73192 | 22153 ft | 431 kts | 42° |
| 2026-05-05 16:29 | 56.42172 | 9.77092 | 22655 ft | 434 kts | 42° |
| 2026-05-05 16:29 | 56.44283 | 9.81016 | 23144 ft | 438 kts | 42° |
| 2026-05-05 16:30 | 56.46413 | 9.84976 | 23610 ft | 441 kts | 42° |
| 2026-05-05 16:30 | 56.48558 | 9.88967 | 23996 ft | 444 kts | 42° |
| 2026-05-05 16:30 | 56.50712 | 9.92990 | 24399 ft | 446 kts | 42° |
| 2026-05-05 16:30 | 56.52877 | 9.97044 | 24790 ft | 449 kts | 43° |
| 2026-05-05 16:31 | 56.54896 | 10.01401 | 25166 ft | 455 kts | 52° |
| 2026-05-05 16:31 | 56.56674 | 10.06163 | 25525 ft | 458 kts | 53° |
| 2026-05-05 16:31 | 56.58458 | 10.10971 | 25894 ft | 460 kts | 53° |
| 2026-05-05 16:31 | 56.60247 | 10.15793 | 26256 ft | 462 kts | 53° |
| 2026-05-05 16:32 | 56.62052 | 10.20656 | 26612 ft | 464 kts | 53° |
| 2026-05-05 16:32 | 56.63858 | 10.25529 | 26961 ft | 467 kts | 53° |
| 2026-05-05 16:32 | 56.65676 | 10.30435 | 27303 ft | 469 kts | 53° |
| 2026-05-05 16:32 | 56.67501 | 10.35371 | 27637 ft | 471 kts | 53° |
| 2026-05-05 16:33 | 56.69327 | 10.40336 | 27960 ft | 474 kts | 53° |
| 2026-05-05 16:33 | 56.71161 | 10.45332 | 28284 ft | 476 kts | 54° |
| 2026-05-05 16:33 | 56.73002 | 10.50354 | 28596 ft | 478 kts | 54° |
| 2026-05-05 16:33 | 56.74848 | 10.55400 | 28896 ft | 480 kts | 54° |
| 2026-05-05 16:34 | 56.76680 | 10.60419 | 29181 ft | 482 kts | 54° |
| 2026-05-05 16:34 | 56.78539 | 10.65523 | 29465 ft | 485 kts | 54° |
| 2026-05-05 16:34 | 56.80407 | 10.70653 | 29745 ft | 487 kts | 54° |
| 2026-05-05 16:34 | 56.82285 | 10.75816 | 30008 ft | 489 kts | 54° |
| 2026-05-05 16:35 | 56.84165 | 10.81003 | 30228 ft | 491 kts | 54° |
| 2026-05-05 16:35 | 56.86048 | 10.86218 | 30429 ft | 492 kts | 54° |
| 2026-05-05 16:35 | 56.87930 | 10.91456 | 30652 ft | 494 kts | 54° |
| 2026-05-05 16:35 | 56.89819 | 10.96724 | 30859 ft | 496 kts | 54° |
| 2026-05-05 16:36 | 56.91709 | 11.02000 | 31141 ft | 495 kts | 54° |
| 2026-05-05 16:36 | 56.93594 | 11.07265 | 31432 ft | 494 kts | 54° |
| 2026-05-05 16:36 | 56.95476 | 11.12528 | 31715 ft | 494 kts | 54° |
| 2026-05-05 16:36 | 56.97355 | 11.17795 | 31998 ft | 494 kts | 54° |
| 2026-05-05 16:37 | 56.99231 | 11.23069 | 32276 ft | 494 kts | 54° |
| 2026-05-05 16:37 | 57.01106 | 11.28353 | 32554 ft | 493 kts | 54° |
| 2026-05-05 16:37 | 57.02972 | 11.33623 | 32849 ft | 493 kts | 54° |
| 2026-05-05 16:37 | 57.04837 | 11.38896 | 33143 ft | 492 kts | 54° |
| 2026-05-05 16:38 | 57.06698 | 11.44168 | 33431 ft | 491 kts | 54° |
| 2026-05-05 16:38 | 57.08555 | 11.49440 | 33708 ft | 491 kts | 54° |
| 2026-05-05 16:38 | 57.10405 | 11.54704 | 33999 ft | 490 kts | 54° |
| 2026-05-05 16:38 | 57.12253 | 11.59986 | 34246 ft | 490 kts | 54° |
| 2026-05-05 16:39 | 57.14095 | 11.65264 | 34478 ft | 490 kts | 54° |
| 2026-05-05 16:39 | 57.15977 | 11.70490 | 34694 ft | 489 kts | 53° |
| 2026-05-05 16:39 | 57.17892 | 11.75567 | 34898 ft | 489 kts | 52° |
| 2026-05-05 16:39 | 57.19869 | 11.80660 | 34965 ft | 486 kts | 51° |
| 2026-05-05 16:40 | 57.23812 | 11.90769 | 34961 ft | 485 kts | 51° |
| 2026-05-05 16:40 | 57.27692 | 12.00962 | 34959 ft | 485 kts | 52° |
| 2026-05-05 16:41 | 57.31529 | 12.11229 | 34961 ft | 485 kts | 52° |
| 2026-05-05 16:41 | 57.35358 | 12.21514 | 34955 ft | 485 kts | 52° |
| 2026-05-05 16:42 | 57.39192 | 12.31803 | 34953 ft | 485 kts | 52° |
| 2026-05-05 16:42 | 57.43017 | 12.42109 | 34949 ft | 485 kts | 52° |
| 2026-05-05 16:43 | 57.46826 | 12.52438 | 34944 ft | 485 kts | 52° |
| 2026-05-05 16:43 | 57.50639 | 12.62813 | 34946 ft | 486 kts | 52° |
| 2026-05-05 16:44 | 57.54446 | 12.73200 | 34940 ft | 486 kts | 52° |
| 2026-05-05 16:44 | 57.58243 | 12.83610 | 34938 ft | 486 kts | 53° |
| 2026-05-05 16:45 | 57.62034 | 12.94057 | 34932 ft | 486 kts | 53° |
| 2026-05-05 16:45 | 57.65813 | 13.04538 | 34933 ft | 487 kts | 53° |
| 2026-05-05 16:46 | 57.69585 | 13.15039 | 34926 ft | 487 kts | 53° |
| 2026-05-05 16:46 | 57.73357 | 13.25568 | 34929 ft | 487 kts | 53° |
| 2026-05-05 16:47 | 57.77119 | 13.36111 | 34919 ft | 487 kts | 53° |
| 2026-05-05 16:47 | 57.80850 | 13.46618 | 34922 ft | 487 kts | 53° |
| 2026-05-05 16:48 | 57.84601 | 13.57211 | 34905 ft | 487 kts | 53° |
| 2026-05-05 16:48 | 57.88342 | 13.67833 | 34903 ft | 487 kts | 53° |
| 2026-05-05 16:49 | 57.92069 | 13.78487 | 34897 ft | 487 kts | 53° |
| 2026-05-05 16:49 | 57.95788 | 13.89153 | 34897 ft | 488 kts | 53° |
| 2026-05-05 16:50 | 57.99501 | 13.99854 | 34895 ft | 488 kts | 53° |
| 2026-05-05 16:50 | 58.03205 | 14.10574 | 34904 ft | 488 kts | 53° |
| 2026-05-05 16:51 | 58.06907 | 14.21313 | 34899 ft | 488 kts | 53° |
| 2026-05-05 16:51 | 58.10600 | 14.32079 | 34903 ft | 488 kts | 53° |
| 2026-05-05 16:52 | 58.14280 | 14.42873 | 34903 ft | 488 kts | 53° |
| 2026-05-05 16:52 | 58.17957 | 14.53699 | 34901 ft | 488 kts | 54° |
| 2026-05-05 16:53 | 58.21628 | 14.64582 | 34918 ft | 496 kts | 54° |
| 2026-05-05 16:53 | 58.25379 | 14.75731 | 34905 ft | 504 kts | 54° |
| 2026-05-05 16:54 | 58.29146 | 14.86989 | 34902 ft | 505 kts | 55° |
| 2026-05-05 16:54 | 58.33044 | 14.98091 | 34902 ft | 503 kts | 49° |
| 2026-05-05 16:55 | 58.37289 | 15.08558 | 34901 ft | 503 kts | 49° |
| 2026-05-05 16:55 | 58.41568 | 15.19116 | 34895 ft | 503 kts | 49° |
| 2026-05-05 16:56 | 58.45831 | 15.29694 | 34896 ft | 503 kts | 49° |
| 2026-05-05 16:56 | 58.50083 | 15.40326 | 34888 ft | 503 kts | 49° |
| 2026-05-05 16:57 | 58.54322 | 15.50990 | 34886 ft | 504 kts | 49° |
| 2026-05-05 16:57 | 58.58557 | 15.61687 | 34888 ft | 504 kts | 49° |
| 2026-05-05 16:58 | 58.62783 | 15.72412 | 34885 ft | 504 kts | 50° |
| 2026-05-05 16:58 | 58.67017 | 15.83183 | 34883 ft | 505 kts | 50° |
| 2026-05-05 16:59 | 58.71244 | 15.93984 | 34880 ft | 505 kts | 50° |
| 2026-05-05 16:59 | 58.75436 | 16.04743 | 34882 ft | 506 kts | 50° |
| 2026-05-05 17:00 | 58.79650 | 16.15621 | 34879 ft | 506 kts | 50° |
| 2026-05-05 17:00 | 58.83853 | 16.26525 | 34874 ft | 507 kts | 50° |
| 2026-05-05 17:01 | 58.88051 | 16.37464 | 34875 ft | 507 kts | 50° |
| 2026-05-05 17:01 | 58.92255 | 16.48447 | 34870 ft | 508 kts | 50° |
| 2026-05-05 17:02 | 58.96451 | 16.59448 | 34868 ft | 508 kts | 50° |
| 2026-05-05 17:02 | 59.00636 | 16.70505 | 34868 ft | 509 kts | 51° |
| 2026-05-05 17:03 | 59.04807 | 16.81610 | 34875 ft | 509 kts | 51° |
| 2026-05-05 17:03 | 59.08984 | 16.92745 | 34869 ft | 509 kts | 51° |
| 2026-05-05 17:04 | 59.13153 | 17.03902 | 34858 ft | 510 kts | 51° |
| 2026-05-05 17:04 | 59.17317 | 17.15102 | 34855 ft | 510 kts | 51° |
| 2026-05-05 17:05 | 59.20766 | 17.24428 | 34850 ft | 510 kts | 51° |
| 2026-05-05 17:05 | 59.24913 | 17.35682 | 34855 ft | 511 kts | 51° |
| 2026-05-05 17:06 | 59.29732 | 17.48814 | 34850 ft | 511 kts | 51° |
| 2026-05-05 17:06 | 59.33192 | 17.58308 | 34857 ft | 512 kts | 51° |
| 2026-05-05 17:07 | 59.37289 | 17.69597 | 34861 ft | 512 kts | 52° |
| 2026-05-05 17:07 | 59.41404 | 17.80998 | 34866 ft | 512 kts | 52° |
| 2026-05-05 17:08 | 59.45525 | 17.92436 | 34860 ft | 513 kts | 52° |
| 2026-05-05 17:08 | 59.49638 | 18.03914 | 34863 ft | 513 kts | 52° |
| 2026-05-05 17:09 | 59.51548 | 18.09860 | 34847 ft | 516 kts | 63° |
| 2026-05-05 17:09 | 59.52886 | 18.16419 | 34861 ft | 517 kts | 69° |
| 2026-05-05 17:09 | 59.55365 | 18.29822 | 34851 ft | 517 kts | 70° |
| 2026-05-05 17:10 | 59.57793 | 18.43089 | 34845 ft | 518 kts | 70° |
| 2026-05-05 17:10 | 59.60234 | 18.56479 | 34860 ft | 519 kts | 70° |
| 2026-05-05 17:11 | 59.62669 | 18.69893 | 34864 ft | 519 kts | 70° |
| 2026-05-05 17:11 | 59.65091 | 18.83314 | 34868 ft | 518 kts | 70° |
| 2026-05-05 17:12 | 59.67513 | 18.96852 | 34869 ft | 518 kts | 70° |
| 2026-05-05 17:12 | 59.69885 | 19.10221 | 34876 ft | 518 kts | 70° |
| 2026-05-05 17:13 | 59.72260 | 19.23703 | 34877 ft | 518 kts | 71° |
| 2026-05-05 17:13 | 59.74612 | 19.37200 | 34864 ft | 518 kts | 71° |
| 2026-05-05 17:14 | 59.76951 | 19.50705 | 34866 ft | 518 kts | 71° |
| 2026-05-05 17:14 | 59.79284 | 19.64232 | 34855 ft | 518 kts | 71° |
| 2026-05-05 17:15 | 59.81598 | 19.77774 | 34858 ft | 518 kts | 71° |
| 2026-05-05 17:15 | 59.83777 | 19.91417 | 34853 ft | 518 kts | 74° |
| 2026-05-05 17:16 | 59.85689 | 20.05213 | 34849 ft | 517 kts | 76° |
| 2026-05-05 17:16 | 59.87538 | 20.19048 | 34854 ft | 517 kts | 75° |
| 2026-05-05 17:17 | 59.89440 | 20.32853 | 34852 ft | 517 kts | 75° |
| 2026-05-05 17:17 | 59.91368 | 20.46657 | 34846 ft | 517 kts | 75° |
| 2026-05-05 17:18 | 59.93280 | 20.60466 | 34845 ft | 517 kts | 75° |
| 2026-05-05 17:18 | 59.95159 | 20.74322 | 34842 ft | 517 kts | 76° |
| 2026-05-05 17:19 | 59.97009 | 20.88190 | 34844 ft | 517 kts | 76° |
| 2026-05-05 17:19 | 59.98856 | 21.02077 | 34841 ft | 518 kts | 76° |
| 2026-05-05 17:20 | 60.00701 | 21.15988 | 34841 ft | 518 kts | 76° |
| 2026-05-05 17:20 | 60.02536 | 21.29928 | 34841 ft | 518 kts | 76° |
| 2026-05-05 17:21 | 60.04350 | 21.43892 | 34843 ft | 518 kts | 76° |
| 2026-05-05 17:22 | 60.07034 | 21.64800 | 34844 ft | 519 kts | 76° |
| 2026-05-05 17:22 | 60.08809 | 21.78812 | 34843 ft | 519 kts | 76° |
| 2026-05-05 17:23 | 60.10585 | 21.92855 | 34787 ft | 520 kts | 76° |
| 2026-05-05 17:23 | 60.11547 | 21.99849 | 34546 ft | 520 kts | 74° |
| 2026-05-05 17:23 | 60.12568 | 22.06819 | 34045 ft | 522 kts | 73° |
| 2026-05-05 17:23 | 60.13636 | 22.13881 | 32734 ft | 535 kts | 73° |
| 2026-05-05 17:24 | 60.14717 | 22.20975 | 32231 ft | 527 kts | 73° |
| 2026-05-05 17:24 | 60.15774 | 22.28011 | 31494 ft | 526 kts | 74° |
| 2026-05-05 17:24 | 60.16806 | 22.35038 | 30821 ft | 524 kts | 74° |
| 2026-05-05 17:24 | 60.17812 | 22.42054 | 30147 ft | 522 kts | 75° |
| 2026-05-05 17:25 | 60.18800 | 22.49079 | 29390 ft | 521 kts | 75° |
| 2026-05-05 17:25 | 60.19447 | 22.53711 | 28963 ft | 518 kts | 75° |
| 2026-05-05 17:25 | 60.20741 | 22.63001 | 28068 ft | 514 kts | 75° |
| 2026-05-05 17:25 | 60.21707 | 22.69904 | 27414 ft | 511 kts | 75° |
| 2026-05-05 17:26 | 60.22671 | 22.76769 | 26773 ft | 508 kts | 75° |
| 2026-05-05 17:26 | 60.23628 | 22.83601 | 26139 ft | 505 kts | 75° |
| 2026-05-05 17:26 | 60.24573 | 22.90393 | 25537 ft | 502 kts | 75° |
| 2026-05-05 17:26 | 60.25508 | 22.97142 | 24932 ft | 499 kts | 75° |
| 2026-05-05 17:27 | 60.26432 | 23.03865 | 24347 ft | 497 kts | 76° |
| 2026-05-05 17:27 | 60.27347 | 23.10550 | 23835 ft | 492 kts | 76° |
| 2026-05-05 17:27 | 60.28254 | 23.17202 | 23171 ft | 492 kts | 76° |
| 2026-05-05 17:27 | 60.29148 | 23.23788 | 22634 ft | 486 kts | 76° |
| 2026-05-05 17:28 | 60.30037 | 23.30359 | 22095 ft | 482 kts | 76° |
| 2026-05-05 17:28 | 60.30912 | 23.36840 | 21603 ft | 475 kts | 76° |
| 2026-05-05 17:28 | 60.31772 | 23.43234 | 20715 ft | 469 kts | 76° |
| 2026-05-05 17:28 | 60.32611 | 23.49494 | 20152 ft | 455 kts | 76° |
| 2026-05-05 17:29 | 60.33422 | 23.55569 | 19578 ft | 455 kts | 76° |
| 2026-05-05 17:29 | 60.34244 | 23.61750 | 18989 ft | 456 kts | 76° |
| 2026-05-05 17:29 | 60.35073 | 23.68037 | 18385 ft | 458 kts | 76° |
| 2026-05-05 17:29 | 60.35886 | 23.74232 | 17951 ft | 454 kts | 76° |
| 2026-05-05 17:30 | 60.36694 | 23.80390 | 17285 ft | 448 kts | 76° |
| 2026-05-05 17:30 | 60.37486 | 23.86436 | 16709 ft | 439 kts | 76° |
| 2026-05-05 17:30 | 60.38251 | 23.92317 | 16220 ft | 423 kts | 76° |
| 2026-05-05 17:30 | 60.38983 | 23.97994 | 15764 ft | 416 kts | 76° |
| 2026-05-05 17:31 | 60.39713 | 24.03673 | 15240 ft | 417 kts | 76° |
| 2026-05-05 17:31 | 60.40431 | 24.09271 | 14715 ft | 417 kts | 76° |
| 2026-05-05 17:31 | 60.41158 | 24.14950 | 14278 ft | 414 kts | 76° |
| 2026-05-05 17:31 | 60.41876 | 24.20559 | 13734 ft | 414 kts | 76° |
| 2026-05-05 17:32 | 60.42588 | 24.26147 | 13431 ft | 406 kts | 77° |
| 2026-05-05 17:32 | 60.43286 | 24.31645 | 12988 ft | 401 kts | 76° |
| 2026-05-05 17:32 | 60.43973 | 24.37057 | 12444 ft | 391 kts | 76° |
| 2026-05-05 17:32 | 60.44639 | 24.42346 | 11648 ft | 383 kts | 76° |
| 2026-05-05 17:33 | 60.45281 | 24.47479 | 10991 ft | 370 kts | 76° |
| 2026-05-05 17:33 | 60.45909 | 24.52444 | 10417 ft | 355 kts | 72° |
| 2026-05-05 17:33 | 60.46956 | 24.56735 | 10293 ft | 331 kts | 49° |
| 2026-05-05 17:33 | 60.48495 | 24.60046 | 10162 ft | 315 kts | 41° |
| 2026-05-05 17:34 | 60.50038 | 24.63067 | 9907 ft | 304 kts | 40° |
| 2026-05-05 17:34 | 60.51551 | 24.65996 | 9670 ft | 298 kts | 40° |
| 2026-05-05 17:34 | 60.53043 | 24.68873 | 9348 ft | 294 kts | 40° |
| 2026-05-05 17:34 | 60.54522 | 24.71718 | 8978 ft | 291 kts | 40° |
| 2026-05-05 17:35 | 60.55969 | 24.74575 | 8591 ft | 290 kts | 46° |
| 2026-05-05 17:35 | 60.56938 | 24.78149 | 8206 ft | 290 kts | 74° |
| 2026-05-05 17:35 | 60.57076 | 24.82190 | 7564 ft | 287 kts | 96° |
| 2026-05-05 17:35 | 60.56780 | 24.86211 | 6937 ft | 289 kts | 100° |
| 2026-05-05 17:36 | 60.56429 | 24.90215 | 6567 ft | 287 kts | 101° |
| 2026-05-05 17:36 | 60.56072 | 24.94187 | 6195 ft | 285 kts | 101° |
| 2026-05-05 17:36 | 60.55716 | 24.98134 | 5783 ft | 283 kts | 101° |
| 2026-05-05 17:36 | 60.55359 | 25.02054 | 5370 ft | 282 kts | 101° |
| 2026-05-05 17:37 | 60.54999 | 25.05959 | 4951 ft | 281 kts | 101° |
| 2026-05-05 17:37 | 60.54756 | 25.08588 | 4687 ft | 279 kts | 101° |
| 2026-05-05 17:37 | 60.54277 | 25.13704 | 4140 ft | 278 kts | 103° |
| 2026-05-05 17:37 | 60.53567 | 25.17323 | 3724 ft | 274 kts | 119° |
| 2026-05-05 17:38 | 60.52671 | 25.20642 | 3589 ft | 262 kts | 121° |
| 2026-05-05 17:38 | 60.51795 | 25.23805 | 3449 ft | 251 kts | 121° |
| 2026-05-05 17:38 | 60.50958 | 25.26827 | 3319 ft | 241 kts | 121° |
| 2026-05-05 17:38 | 60.50156 | 25.29750 | 3125 ft | 235 kts | 121° |
| 2026-05-05 17:39 | 60.49149 | 25.32250 | 3002 ft | 226 kts | 153° |
| 2026-05-05 17:39 | 60.47688 | 25.32871 | 3012 ft | 213 kts | 197° |
| 2026-05-05 17:39 | 60.46505 | 25.31383 | 2997 ft | 195 kts | 241° |
| 2026-05-05 17:39 | 60.46161 | 25.28920 | 3015 ft | 177 kts | 265° |
| 2026-05-05 17:40 | 60.45759 | 25.26632 | 3036 ft | 175 kts | 239° |
| 2026-05-05 17:40 | 60.45027 | 25.24667 | 3005 ft | 174 kts | 235° |
| 2026-05-05 17:40 | 60.44245 | 25.22789 | 3000 ft | 174 kts | 233° |
| 2026-05-05 17:40 | 60.43445 | 25.20959 | 3003 ft | 173 kts | 232° |
| 2026-05-05 17:41 | 60.42678 | 25.19240 | 2963 ft | 159 kts | 232° |
| 2026-05-05 17:41 | 60.41946 | 25.17604 | 2813 ft | 154 kts | 232° |
| 2026-05-05 17:41 | 60.41231 | 25.16009 | 2622 ft | 152 kts | 233° |
| 2026-05-05 17:41 | 60.40519 | 25.14423 | 2420 ft | 152 kts | 233° |
| 2026-05-05 17:42 | 60.39807 | 25.12839 | 2217 ft | 152 kts | 232° |
| 2026-05-05 17:42 | 60.39095 | 25.11258 | 1991 ft | 151 kts | 233° |
| 2026-05-05 17:42 | 60.38388 | 25.09690 | 1795 ft | 149 kts | 233° |
| 2026-05-05 17:42 | 60.37721 | 25.08214 | 1604 ft | 137 kts | 233° |
| 2026-05-05 17:43 | 60.37096 | 25.06828 | 1416 ft | 132 kts | 233° |
| 2026-05-05 17:43 | 60.36484 | 25.05471 | 1229 ft | 130 kts | 233° |
| 2026-05-05 17:43 | 60.35878 | 25.04126 | 1026 ft | 129 kts | 233° |
| 2026-05-05 17:43 | 60.35278 | 25.02787 | 851 ft | 129 kts | 232° |
| 2026-05-05 17:44 | 60.34673 | 25.01449 | 647 ft | 129 kts | 231° |
| 2026-05-05 17:44 | 60.34081 | 25.00105 | 479 ft | 128 kts | 230° |
| 2026-05-05 17:44 | 60.33475 | 24.98785 | 338 ft | 128 kts | 229° |
| 2026-05-05 17:44 | 60.32869 | 24.97468 | 176 ft | 124 kts | 229° |
| 2026-05-05 17:45 | 60.32354 | 24.96308 | 163 ft | 96 kts | 227° |
| 2026-05-05 17:45 | 60.32064 | 24.95730 | 162 ft | 40 kts | 210° |
| 2026-05-05 17:45 | 60.31881 | 24.95599 | 162 ft | 9 kts | 194° |
| 2026-05-05 17:45 | 60.31827 | 24.95610 | 161 ft | 8 kts | 144° |
| 2026-05-05 17:46 | 60.31814 | 24.95693 | 161 ft | 6 kts | 71° |
| 2026-05-05 17:46 | 60.31835 | 24.95753 | 161 ft | 5 kts | 48° |
| 2026-05-05 17:46 | 60.31854 | 24.95796 | 161 ft | 4 kts | 48° |
| 2026-05-05 17:46 | 60.31868 | 24.95828 | 161 ft | 3 kts | 48° |
| 2026-05-05 17:47 | 60.31905 | 24.95911 | 161 ft | 12 kts | 47° |
| 2026-05-05 17:47 | 60.31953 | 24.96015 | 161 ft | 16 kts | 47° |
| 2026-05-05 17:47 | 60.32048 | 24.96225 | 162 ft | 14 kts | 47° |
| 2026-05-05 17:47 | 60.32113 | 24.96368 | 162 ft | 13 kts | 47° |
| 2026-05-05 17:48 | 60.32153 | 24.96457 | 162 ft | 13 kts | 47° |
| 2026-05-05 17:48 | 60.32211 | 24.96584 | 161 ft | 12 kts | 47° |
| 2026-05-05 17:48 | 60.32255 | 24.96696 | 161 ft | 9 kts | 73° |
| 2026-05-05 17:48 | 60.32237 | 24.96740 | 161 ft | 0 kts | 146° |
| 2026-05-05 17:49 | 60.32205 | 24.96780 | 161 ft | 7 kts | 149° |
| 2026-05-05 17:49 | 60.32164 | 24.96830 | 161 ft | 7 kts | 149° |
| 2026-05-05 17:49 | 60.32127 | 24.96872 | 161 ft | 6 kts | 150° |
| 2026-05-05 17:49 | 60.32096 | 24.96886 | 161 ft | 4 kts | 192° |
| 2026-05-05 17:50 | 60.32073 | 24.96876 | 161 ft | 3 kts | 192° |
| 2026-05-05 17:50 | 60.32058 | 24.96869 | 161 ft | 4 kts | 192° |
| 2026-05-05 17:50 | 60.32023 | 24.96853 | 161 ft | 4 kts | 193° |
| 2026-05-05 17:50 | 60.32015 | 24.96849 | 161 ft | 0 kts | 193° |
| 2026-05-05 17:51 | 60.32009 | 24.96846 | 161 ft | 0 kts | 193° |